sensor_id;sensor_type;location;lat;lon;timestamp;temperature;humidity
25582;DHT22;13462;50.764;4.332;2023-05-31T00:02:15;13.40;99.90
25582;DHT22;13462;50.764;4.332;2023-05-31T00:04:40;13.50;99.90
25582;DHT22;13462;50.764;4.332;2023-05-31T00:07:06;13.40;99.90
25582;DHT22;13462;50.764;4.332;2023-05-31T00:09:32;13.30;99.90
25582;DHT22;13462;50.764;4.332;2023-05-31T00:11:58;13.30;99.90
25582;DHT22;13462;50.764;4.332;2023-05-31T00:14:23;13.30;99.90
25582;DHT22;13462;50.764;4.332;2023-05-31T00:16:49;13.40;99.90
25582;DHT22;13462;50.764;4.332;2023-05-31T00:19:15;13.20;99.90
25582;DHT22;13462;50.764;4.332;2023-05-31T00:21:40;13.20;99.90
25582;DHT22;13462;50.764;4.332;2023-05-31T00:24:08;13.20;99.90
25582;DHT22;13462;50.764;4.332;2023-05-31T00:26:34;13.20;99.90
25582;DHT22;13462;50.764;4.332;2023-05-31T00:28:59;13.20;99.90
25582;DHT22;13462;50.764;4.332;2023-05-31T00:31:25;13.20;99.90
25582;DHT22;13462;50.764;4.332;2023-05-31T00:33:50;13.30;99.90
25582;DHT22;13462;50.764;4.332;2023-05-31T00:36:16;13.20;99.90
25582;DHT22;13462;50.764;4.332;2023-05-31T00:38:41;13.20;99.90
25582;DHT22;13462;50.764;4.332;2023-05-31T00:41:08;13.20;99.90
25582;DHT22;13462;50.764;4.332;2023-05-31T00:43:35;13.20;99.90
25582;DHT22;13462;50.764;4.332;2023-05-31T00:46:01;13.20;99.90
25582;DHT22;13462;50.764;4.332;2023-05-31T00:48:27;13.20;99.90
25582;DHT22;13462;50.764;4.332;2023-05-31T00:50:53;13.30;99.90
25582;DHT22;13462;50.764;4.332;2023-05-31T00:53:18;13.20;99.90
25582;DHT22;13462;50.764;4.332;2023-05-31T00:55:45;13.20;99.90
25582;DHT22;13462;50.764;4.332;2023-05-31T00:58:11;13.10;99.90
25582;DHT22;13462;50.764;4.332;2023-05-31T01:00:37;13.10;99.90
25582;DHT22;13462;50.764;4.332;2023-05-31T01:03:02;13.00;99.90
25582;DHT22;13462;50.764;4.332;2023-05-31T01:05:28;13.00;99.90
25582;DHT22;13462;50.764;4.332;2023-05-31T01:07:54;13.00;99.90
25582;DHT22;13462;50.764;4.332;2023-05-31T01:10:20;13.00;99.90
25582;DHT22;13462;50.764;4.332;2023-05-31T01:13:12;12.90;99.90
25582;DHT22;13462;50.764;4.332;2023-05-31T01:15:57;12.80;99.90
25582;DHT22;13462;50.764;4.332;2023-05-31T01:18:27;12.90;99.90
25582;DHT22;13462;50.764;4.332;2023-05-31T01:20:58;12.90;99.90
25582;DHT22;13462;50.764;4.332;2023-05-31T01:26:33;12.80;99.90
25582;DHT22;13462;50.764;4.332;2023-05-31T01:29:04;12.70;99.90
25582;DHT22;13462;50.764;4.332;2023-05-31T01:31:34;12.70;99.90
25582;DHT22;13462;50.764;4.332;2023-05-31T01:33:59;12.60;99.90
25582;DHT22;13462;50.764;4.332;2023-05-31T01:36:25;12.60;99.90
25582;DHT22;13462;50.764;4.332;2023-05-31T01:38:51;12.50;99.90
25582;DHT22;13462;50.764;4.332;2023-05-31T01:41:17;12.60;99.90
25582;DHT22;13462;50.764;4.332;2023-05-31T01:43:45;12.60;99.90
25582;DHT22;13462;50.764;4.332;2023-05-31T01:46:14;12.60;99.90
25582;DHT22;13462;50.764;4.332;2023-05-31T01:48:41;12.60;99.90
25582;DHT22;13462;50.764;4.332;2023-05-31T01:51:09;12.40;99.90
25582;DHT22;13462;50.764;4.332;2023-05-31T01:53:36;12.50;99.90
25582;DHT22;13462;50.764;4.332;2023-05-31T01:56:03;12.40;99.90
25582;DHT22;13462;50.764;4.332;2023-05-31T01:58:38;12.30;99.90
25582;DHT22;13462;50.764;4.332;2023-05-31T02:01:10;12.40;99.90
25582;DHT22;13462;50.764;4.332;2023-05-31T02:03:37;12.40;99.90
25582;DHT22;13462;50.764;4.332;2023-05-31T02:06:03;12.40;99.90
25582;DHT22;13462;50.764;4.332;2023-05-31T02:08:29;12.40;99.90
25582;DHT22;13462;50.764;4.332;2023-05-31T02:10:55;12.40;99.90
25582;DHT22;13462;50.764;4.332;2023-05-31T02:13:24;12.40;99.90
25582;DHT22;13462;50.764;4.332;2023-05-31T02:15:51;12.30;99.90
25582;DHT22;13462;50.764;4.332;2023-05-31T02:18:17;12.20;99.90
25582;DHT22;13462;50.764;4.332;2023-05-31T02:20:43;12.20;99.90
25582;DHT22;13462;50.764;4.332;2023-05-31T02:23:09;12.30;99.90
25582;DHT22;13462;50.764;4.332;2023-05-31T02:25:35;12.20;99.90
25582;DHT22;13462;50.764;4.332;2023-05-31T02:28:00;12.20;99.90
25582;DHT22;13462;50.764;4.332;2023-05-31T02:30:27;12.20;99.90
25582;DHT22;13462;50.764;4.332;2023-05-31T02:32:53;12.20;99.90
25582;DHT22;13462;50.764;4.332;2023-05-31T02:35:19;12.20;99.90
25582;DHT22;13462;50.764;4.332;2023-05-31T02:37:45;12.20;99.90
25582;DHT22;13462;50.764;4.332;2023-05-31T02:40:10;12.20;99.90
25582;DHT22;13462;50.764;4.332;2023-05-31T02:42:39;12.20;99.90
25582;DHT22;13462;50.764;4.332;2023-05-31T02:45:05;12.20;99.90
25582;DHT22;13462;50.764;4.332;2023-05-31T02:47:31;12.10;99.90
25582;DHT22;13462;50.764;4.332;2023-05-31T02:49:57;12.00;99.90
25582;DHT22;13462;50.764;4.332;2023-05-31T02:52:24;12.00;99.90
25582;DHT22;13462;50.764;4.332;2023-05-31T02:54:50;12.00;99.90
25582;DHT22;13462;50.764;4.332;2023-05-31T02:57:15;12.00;99.90
25582;DHT22;13462;50.764;4.332;2023-05-31T02:59:43;12.00;99.90
25582;DHT22;13462;50.764;4.332;2023-05-31T03:02:09;11.90;99.90
25582;DHT22;13462;50.764;4.332;2023-05-31T03:04:36;11.90;99.90
25582;DHT22;13462;50.764;4.332;2023-05-31T03:07:01;11.90;99.90
25582;DHT22;13462;50.764;4.332;2023-05-31T03:09:27;11.90;99.90
25582;DHT22;13462;50.764;4.332;2023-05-31T03:11:52;11.80;99.90
25582;DHT22;13462;50.764;4.332;2023-05-31T03:14:18;11.90;99.90
25582;DHT22;13462;50.764;4.332;2023-05-31T03:16:44;11.80;99.90
25582;DHT22;13462;50.764;4.332;2023-05-31T03:19:10;11.70;99.90
25582;DHT22;13462;50.764;4.332;2023-05-31T03:21:36;11.80;99.90
25582;DHT22;13462;50.764;4.332;2023-05-31T03:24:02;11.70;99.90
25582;DHT22;13462;50.764;4.332;2023-05-31T03:26:28;11.70;99.90
25582;DHT22;13462;50.764;4.332;2023-05-31T03:28:53;11.70;99.90
25582;DHT22;13462;50.764;4.332;2023-05-31T03:31:19;11.70;99.90
25582;DHT22;13462;50.764;4.332;2023-05-31T03:33:44;11.70;99.90
25582;DHT22;13462;50.764;4.332;2023-05-31T03:36:10;11.70;99.90
25582;DHT22;13462;50.764;4.332;2023-05-31T03:38:36;11.70;99.90
25582;DHT22;13462;50.764;4.332;2023-05-31T03:41:01;11.60;99.90
25582;DHT22;13462;50.764;4.332;2023-05-31T03:43:27;11.70;99.90
25582;DHT22;13462;50.764;4.332;2023-05-31T03:45:53;11.60;99.90
25582;DHT22;13462;50.764;4.332;2023-05-31T03:48:18;11.60;99.90
25582;DHT22;13462;50.764;4.332;2023-05-31T03:50:44;11.50;99.90
25582;DHT22;13462;50.764;4.332;2023-05-31T03:53:10;11.60;99.90
25582;DHT22;13462;50.764;4.332;2023-05-31T03:55:35;11.50;99.90
25582;DHT22;13462;50.764;4.332;2023-05-31T03:58:01;11.60;99.90
25582;DHT22;13462;50.764;4.332;2023-05-31T04:00:28;11.60;99.90
25582;DHT22;13462;50.764;4.332;2023-05-31T04:02:54;11.60;99.90
25582;DHT22;13462;50.764;4.332;2023-05-31T04:05:19;11.60;99.90
25582;DHT22;13462;50.764;4.332;2023-05-31T04:07:45;11.60;99.90
25582;DHT22;13462;50.764;4.332;2023-05-31T04:10:11;11.50;99.90
25582;DHT22;13462;50.764;4.332;2023-05-31T04:12:36;11.50;99.90
25582;DHT22;13462;50.764;4.332;2023-05-31T04:15:02;11.50;99.90
25582;DHT22;13462;50.764;4.332;2023-05-31T04:17:28;11.60;99.90
25582;DHT22;13462;50.764;4.332;2023-05-31T04:19:54;11.70;99.90
25582;DHT22;13462;50.764;4.332;2023-05-31T04:22:19;11.70;99.90
25582;DHT22;13462;50.764;4.332;2023-05-31T04:24:46;11.80;99.90
25582;DHT22;13462;50.764;4.332;2023-05-31T04:27:11;11.80;99.90
25582;DHT22;13462;50.764;4.332;2023-05-31T04:29:46;11.90;99.90
25582;DHT22;13462;50.764;4.332;2023-05-31T04:32:12;11.90;99.90
25582;DHT22;13462;50.764;4.332;2023-05-31T04:34:41;11.80;99.90
25582;DHT22;13462;50.764;4.332;2023-05-31T04:37:07;11.90;99.90
25582;DHT22;13462;50.764;4.332;2023-05-31T04:39:33;12.00;99.90
25582;DHT22;13462;50.764;4.332;2023-05-31T04:41:58;12.10;99.90
25582;DHT22;13462;50.764;4.332;2023-05-31T04:44:28;12.10;99.90
25582;DHT22;13462;50.764;4.332;2023-05-31T04:46:53;12.10;99.90
25582;DHT22;13462;50.764;4.332;2023-05-31T04:49:19;12.10;99.90
25582;DHT22;13462;50.764;4.332;2023-05-31T04:51:45;12.20;99.90
25582;DHT22;13462;50.764;4.332;2023-05-31T04:54:10;12.20;99.90
25582;DHT22;13462;50.764;4.332;2023-05-31T04:56:36;12.30;99.90
25582;DHT22;13462;50.764;4.332;2023-05-31T04:59:02;12.30;99.90
25582;DHT22;13462;50.764;4.332;2023-05-31T05:01:28;12.40;99.90
25582;DHT22;13462;50.764;4.332;2023-05-31T05:03:54;12.50;99.90
25582;DHT22;13462;50.764;4.332;2023-05-31T05:06:19;12.60;99.90
25582;DHT22;13462;50.764;4.332;2023-05-31T05:08:46;12.70;99.90
25582;DHT22;13462;50.764;4.332;2023-05-31T05:11:12;12.80;99.90
25582;DHT22;13462;50.764;4.332;2023-05-31T05:13:38;12.90;99.90
25582;DHT22;13462;50.764;4.332;2023-05-31T05:16:03;13.00;99.90
25582;DHT22;13462;50.764;4.332;2023-05-31T05:18:30;13.10;99.90
25582;DHT22;13462;50.764;4.332;2023-05-31T05:20:56;13.20;99.90
25582;DHT22;13462;50.764;4.332;2023-05-31T05:23:22;13.20;99.90
25582;DHT22;13462;50.764;4.332;2023-05-31T05:25:48;13.40;99.90
25582;DHT22;13462;50.764;4.332;2023-05-31T05:28:14;13.30;99.90
25582;DHT22;13462;50.764;4.332;2023-05-31T05:30:39;13.40;99.90
25582;DHT22;13462;50.764;4.332;2023-05-31T05:33:05;13.60;99.90
25582;DHT22;13462;50.764;4.332;2023-05-31T05:35:31;13.60;99.90
25582;DHT22;13462;50.764;4.332;2023-05-31T05:37:57;13.60;99.90
25582;DHT22;13462;50.764;4.332;2023-05-31T05:40:23;13.60;99.90
25582;DHT22;13462;50.764;4.332;2023-05-31T05:42:49;13.60;99.90
25582;DHT22;13462;50.764;4.332;2023-05-31T05:45:15;13.70;99.90
25582;DHT22;13462;50.764;4.332;2023-05-31T05:47:40;14.00;99.90
25582;DHT22;13462;50.764;4.332;2023-05-31T05:50:11;14.90;99.90
25582;DHT22;13462;50.764;4.332;2023-05-31T05:52:36;15.90;99.90
25582;DHT22;13462;50.764;4.332;2023-05-31T05:55:02;16.90;99.90
25582;DHT22;13462;50.764;4.332;2023-05-31T05:57:29;17.60;99.90
25582;DHT22;13462;50.764;4.332;2023-05-31T05:59:55;18.30;99.90
25582;DHT22;13462;50.764;4.332;2023-05-31T06:02:21;19.10;99.90
25582;DHT22;13462;50.764;4.332;2023-05-31T06:04:47;19.80;99.90
25582;DHT22;13462;50.764;4.332;2023-05-31T06:07:13;20.10;99.90
25582;DHT22;13462;50.764;4.332;2023-05-31T06:09:39;20.30;99.90
25582;DHT22;13462;50.764;4.332;2023-05-31T06:12:05;21.00;99.90
25582;DHT22;13462;50.764;4.332;2023-05-31T06:14:32;21.30;99.90
25582;DHT22;13462;50.764;4.332;2023-05-31T06:16:57;22.10;99.90
25582;DHT22;13462;50.764;4.332;2023-05-31T06:19:23;21.90;99.60
25582;DHT22;13462;50.764;4.332;2023-05-31T06:21:48;22.10;99.50
25582;DHT22;13462;50.764;4.332;2023-05-31T06:24:14;22.80;98.80
25582;DHT22;13462;50.764;4.332;2023-05-31T06:26:40;22.70;97.80
25582;DHT22;13462;50.764;4.332;2023-05-31T06:29:05;23.20;97.20
25582;DHT22;13462;50.764;4.332;2023-05-31T06:31:31;23.60;96.40
25582;DHT22;13462;50.764;4.332;2023-05-31T06:33:58;23.90;95.00
25582;DHT22;13462;50.764;4.332;2023-05-31T06:36:24;23.90;95.00
25582;DHT22;13462;50.764;4.332;2023-05-31T06:38:50;23.30;94.40
25582;DHT22;13462;50.764;4.332;2023-05-31T06:41:15;23.00;95.60
25582;DHT22;13462;50.764;4.332;2023-05-31T06:43:41;23.70;95.20
25582;DHT22;13462;50.764;4.332;2023-05-31T06:46:06;24.40;94.30
25582;DHT22;13462;50.764;4.332;2023-05-31T06:48:34;24.90;92.70
25582;DHT22;13462;50.764;4.332;2023-05-31T06:51:00;24.70;92.40
25582;DHT22;13462;50.764;4.332;2023-05-31T06:53:25;24.90;92.40
25582;DHT22;13462;50.764;4.332;2023-05-31T06:55:51;25.10;91.50
25582;DHT22;13462;50.764;4.332;2023-05-31T06:58:17;26.10;91.10
25582;DHT22;13462;50.764;4.332;2023-05-31T07:00:42;25.70;90.10
25582;DHT22;13462;50.764;4.332;2023-05-31T07:03:08;25.70;90.60
25582;DHT22;13462;50.764;4.332;2023-05-31T07:05:34;25.50;90.40
25582;DHT22;13462;50.764;4.332;2023-05-31T07:08:00;25.90;90.00
25582;DHT22;13462;50.764;4.332;2023-05-31T07:10:25;25.70;89.10
25582;DHT22;13462;50.764;4.332;2023-05-31T07:12:53;25.50;90.20
25582;DHT22;13462;50.764;4.332;2023-05-31T07:15:19;25.30;89.90
25582;DHT22;13462;50.764;4.332;2023-05-31T07:17:45;25.10;90.60
25582;DHT22;13462;50.764;4.332;2023-05-31T07:20:11;25.40;90.50
25582;DHT22;13462;50.764;4.332;2023-05-31T07:22:37;26.00;89.10
25582;DHT22;13462;50.764;4.332;2023-05-31T07:25:03;25.80;89.70
25582;DHT22;13462;50.764;4.332;2023-05-31T07:27:30;25.80;90.30
25582;DHT22;13462;50.764;4.332;2023-05-31T07:29:56;26.40;88.00
25582;DHT22;13462;50.764;4.332;2023-05-31T07:32:22;26.70;86.90
25582;DHT22;13462;50.764;4.332;2023-05-31T07:34:47;27.90;85.20
25582;DHT22;13462;50.764;4.332;2023-05-31T07:37:13;28.00;83.00
25582;DHT22;13462;50.764;4.332;2023-05-31T07:39:39;28.00;81.60
25582;DHT22;13462;50.764;4.332;2023-05-31T07:42:05;28.10;81.30
25582;DHT22;13462;50.764;4.332;2023-05-31T07:44:30;28.30;80.50
25582;DHT22;13462;50.764;4.332;2023-05-31T07:46:56;28.50;80.30
25582;DHT22;13462;50.764;4.332;2023-05-31T07:49:22;29.60;78.50
25582;DHT22;13462;50.764;4.332;2023-05-31T07:51:47;29.50;76.00
25582;DHT22;13462;50.764;4.332;2023-05-31T07:54:13;30.20;75.60
25582;DHT22;13462;50.764;4.332;2023-05-31T07:56:39;29.20;75.10
25582;DHT22;13462;50.764;4.332;2023-05-31T07:59:05;29.20;76.10
25582;DHT22;13462;50.764;4.332;2023-05-31T08:01:32;29.80;77.50
25582;DHT22;13462;50.764;4.332;2023-05-31T08:04:06;29.80;73.10
25582;DHT22;13462;50.764;4.332;2023-05-31T08:06:32;30.00;74.50
25582;DHT22;13462;50.764;4.332;2023-05-31T08:08:58;29.50;74.50
25582;DHT22;13462;50.764;4.332;2023-05-31T08:11:24;30.30;74.90
25582;DHT22;13462;50.764;4.332;2023-05-31T08:13:51;29.50;73.20
25582;DHT22;13462;50.764;4.332;2023-05-31T08:16:17;30.50;74.60
25582;DHT22;13462;50.764;4.332;2023-05-31T08:18:43;31.30;71.50
25582;DHT22;13462;50.764;4.332;2023-05-31T08:21:09;31.00;68.60
25582;DHT22;13462;50.764;4.332;2023-05-31T08:23:34;30.60;69.80
25582;DHT22;13462;50.764;4.332;2023-05-31T08:26:00;30.10;71.20
25582;DHT22;13462;50.764;4.332;2023-05-31T08:28:26;30.70;69.90
25582;DHT22;13462;50.764;4.332;2023-05-31T08:30:52;31.20;68.30
25582;DHT22;13462;50.764;4.332;2023-05-31T08:33:17;31.90;68.30
25582;DHT22;13462;50.764;4.332;2023-05-31T08:35:43;31.70;66.30
25582;DHT22;13462;50.764;4.332;2023-05-31T08:38:09;32.90;67.40
25582;DHT22;13462;50.764;4.332;2023-05-31T08:40:34;33.20;63.70
25582;DHT22;13462;50.764;4.332;2023-05-31T08:43:05;31.80;63.20
25582;DHT22;13462;50.764;4.332;2023-05-31T08:45:34;30.90;66.10
25582;DHT22;13462;50.764;4.332;2023-05-31T08:48:14;30.70;65.90
25582;DHT22;13462;50.764;4.332;2023-05-31T08:50:43;31.30;65.90
25582;DHT22;13462;50.764;4.332;2023-05-31T08:53:09;31.30;66.80
25582;DHT22;13462;50.764;4.332;2023-05-31T08:55:35;31.70;64.00
25582;DHT22;13462;50.764;4.332;2023-05-31T08:58:02;31.40;65.00
25582;DHT22;13462;50.764;4.332;2023-05-31T09:00:28;31.70;64.60
25582;DHT22;13462;50.764;4.332;2023-05-31T09:02:55;31.50;67.70
25582;DHT22;13462;50.764;4.332;2023-05-31T09:05:21;32.10;66.00
25582;DHT22;13462;50.764;4.332;2023-05-31T09:07:47;32.30;65.00
25582;DHT22;13462;50.764;4.332;2023-05-31T09:10:15;32.50;62.80
25582;DHT22;13462;50.764;4.332;2023-05-31T09:12:42;33.10;65.20
25582;DHT22;13462;50.764;4.332;2023-05-31T09:15:08;33.40;61.50
25582;DHT22;13462;50.764;4.332;2023-05-31T09:17:42;32.50;61.90
25582;DHT22;13462;50.764;4.332;2023-05-31T09:20:09;31.60;64.00
25582;DHT22;13462;50.764;4.332;2023-05-31T09:22:36;32.00;63.70
25582;DHT22;13462;50.764;4.332;2023-05-31T09:25:01;32.50;63.80
25582;DHT22;13462;50.764;4.332;2023-05-31T09:27:38;33.40;62.00
25582;DHT22;13462;50.764;4.332;2023-05-31T09:30:11;33.80;58.90
25582;DHT22;13462;50.764;4.332;2023-05-31T09:32:37;34.40;58.10
25582;DHT22;13462;50.764;4.332;2023-05-31T09:35:16;33.80;57.50
25582;DHT22;13462;50.764;4.332;2023-05-31T09:37:49;33.20;58.80
25582;DHT22;13462;50.764;4.332;2023-05-31T09:40:25;33.30;60.10
25582;DHT22;13462;50.764;4.332;2023-05-31T09:42:54;32.80;60.60
25582;DHT22;13462;50.764;4.332;2023-05-31T09:45:21;33.20;60.60
25582;DHT22;13462;50.764;4.332;2023-05-31T09:47:47;33.70;61.10
25582;DHT22;13462;50.764;4.332;2023-05-31T09:50:18;33.70;58.30
25582;DHT22;13462;50.764;4.332;2023-05-31T09:52:45;33.40;59.10
25582;DHT22;13462;50.764;4.332;2023-05-31T09:55:15;34.00;58.60
25582;DHT22;13462;50.764;4.332;2023-05-31T09:57:42;33.20;57.30
25582;DHT22;13462;50.764;4.332;2023-05-31T10:00:14;33.40;59.00
25582;DHT22;13462;50.764;4.332;2023-05-31T10:02:46;33.00;58.30
25582;DHT22;13462;50.764;4.332;2023-05-31T10:05:13;33.20;57.40
25582;DHT22;13462;50.764;4.332;2023-05-31T10:07:40;32.90;57.30
25582;DHT22;13462;50.764;4.332;2023-05-31T10:10:07;32.60;57.50
25582;DHT22;13462;50.764;4.332;2023-05-31T10:15:07;33.10;57.60
25582;DHT22;13462;50.764;4.332;2023-05-31T10:17:41;33.90;59.30
25582;DHT22;13462;50.764;4.332;2023-05-31T10:20:12;33.90;57.70
25582;DHT22;13462;50.764;4.332;2023-05-31T10:22:39;33.70;55.60
25582;DHT22;13462;50.764;4.332;2023-05-31T10:25:10;34.50;55.80
25582;DHT22;13462;50.764;4.332;2023-05-31T10:27:38;34.60;55.50
25582;DHT22;13462;50.764;4.332;2023-05-31T10:30:05;34.10;54.50
25582;DHT22;13462;50.764;4.332;2023-05-31T10:32:40;33.70;55.20
25582;DHT22;13462;50.764;4.332;2023-05-31T10:35:06;32.90;55.10
25582;DHT22;13462;50.764;4.332;2023-05-31T10:37:34;32.80;54.70
25582;DHT22;13462;50.764;4.332;2023-05-31T10:40:22;32.10;56.00
25582;DHT22;13462;50.764;4.332;2023-05-31T10:45:46;33.00;55.80
25582;DHT22;13462;50.764;4.332;2023-05-31T10:50:53;33.30;54.20
25582;DHT22;13462;50.764;4.332;2023-05-31T10:53:18;33.10;56.00
25582;DHT22;13462;50.764;4.332;2023-05-31T10:55:46;32.80;54.10
25582;DHT22;13462;50.764;4.332;2023-05-31T10:58:29;33.00;54.20
25582;DHT22;13462;50.764;4.332;2023-05-31T11:00:56;33.00;54.60
25582;DHT22;13462;50.764;4.332;2023-05-31T11:03:25;33.10;54.60
25582;DHT22;13462;50.764;4.332;2023-05-31T11:05:55;33.00;57.20
25582;DHT22;13462;50.764;4.332;2023-05-31T11:08:22;33.50;54.50
25582;DHT22;13462;50.764;4.332;2023-05-31T11:10:47;32.70;54.20
25582;DHT22;13462;50.764;4.332;2023-05-31T11:13:14;33.10;53.00
25582;DHT22;13462;50.764;4.332;2023-05-31T11:15:44;32.80;52.90
25582;DHT22;13462;50.764;4.332;2023-05-31T11:18:23;33.00;55.00
25582;DHT22;13462;50.764;4.332;2023-05-31T11:20:51;33.20;54.20
25582;DHT22;13462;50.764;4.332;2023-05-31T11:25:43;33.70;54.30
25582;DHT22;13462;50.764;4.332;2023-05-31T11:28:09;33.30;52.60
25582;DHT22;13462;50.764;4.332;2023-05-31T11:30:36;32.40;51.90
25582;DHT22;13462;50.764;4.332;2023-05-31T11:33:02;32.10;53.70
25582;DHT22;13462;50.764;4.332;2023-05-31T11:35:32;32.60;54.90
25582;DHT22;13462;50.764;4.332;2023-05-31T11:38:03;33.20;53.60
25582;DHT22;13462;50.764;4.332;2023-05-31T11:40:29;33.40;52.60
25582;DHT22;13462;50.764;4.332;2023-05-31T11:43:02;33.40;52.50
25582;DHT22;13462;50.764;4.332;2023-05-31T11:45:31;33.20;51.60
25582;DHT22;13462;50.764;4.332;2023-05-31T11:48:21;33.00;50.60
25582;DHT22;13462;50.764;4.332;2023-05-31T11:50:49;32.70;51.50
25582;DHT22;13462;50.764;4.332;2023-05-31T11:53:15;32.60;51.20
25582;DHT22;13462;50.764;4.332;2023-05-31T11:55:45;32.40;52.00
25582;DHT22;13462;50.764;4.332;2023-05-31T11:58:14;32.40;52.10
25582;DHT22;13462;50.764;4.332;2023-05-31T12:00:46;32.50;53.90
25582;DHT22;13462;50.764;4.332;2023-05-31T12:03:14;32.30;52.80
25582;DHT22;13462;50.764;4.332;2023-05-31T12:05:40;31.90;54.30
25582;DHT22;13462;50.764;4.332;2023-05-31T12:08:06;32.00;52.70
25582;DHT22;13462;50.764;4.332;2023-05-31T12:10:38;32.40;56.70
25582;DHT22;13462;50.764;4.332;2023-05-31T12:13:04;32.60;52.80
25582;DHT22;13462;50.764;4.332;2023-05-31T12:15:30;32.60;52.90
25582;DHT22;13462;50.764;4.332;2023-05-31T12:17:59;32.10;52.30
25582;DHT22;13462;50.764;4.332;2023-05-31T12:20:29;31.40;52.50
25582;DHT22;13462;50.764;4.332;2023-05-31T12:23:15;30.90;53.00
25582;DHT22;13462;50.764;4.332;2023-05-31T12:25:48;31.00;55.00
25582;DHT22;13462;50.764;4.332;2023-05-31T12:28:17;31.30;53.30
25582;DHT22;13462;50.764;4.332;2023-05-31T12:30:44;31.00;52.80
25582;DHT22;13462;50.764;4.332;2023-05-31T12:33:11;30.50;54.20
25582;DHT22;13462;50.764;4.332;2023-05-31T12:35:44;30.50;53.60
25582;DHT22;13462;50.764;4.332;2023-05-31T12:38:11;30.70;56.00
25582;DHT22;13462;50.764;4.332;2023-05-31T12:40:37;31.00;53.80
25582;DHT22;13462;50.764;4.332;2023-05-31T12:43:05;30.60;52.90
25582;DHT22;13462;50.764;4.332;2023-05-31T12:45:31;30.40;55.10
25582;DHT22;13462;50.764;4.332;2023-05-31T12:47:57;30.60;55.20
25582;DHT22;13462;50.764;4.332;2023-05-31T12:50:23;30.70;53.20
25582;DHT22;13462;50.764;4.332;2023-05-31T12:52:58;30.90;54.90
25582;DHT22;13462;50.764;4.332;2023-05-31T12:55:26;31.00;53.00
25582;DHT22;13462;50.764;4.332;2023-05-31T12:57:51;31.00;54.30
25582;DHT22;13462;50.764;4.332;2023-05-31T13:00:17;31.00;52.90
25582;DHT22;13462;50.764;4.332;2023-05-31T13:02:42;30.90;53.90
25582;DHT22;13462;50.764;4.332;2023-05-31T13:05:08;30.50;53.30
25582;DHT22;13462;50.764;4.332;2023-05-31T13:07:34;30.20;55.40
25582;DHT22;13462;50.764;4.332;2023-05-31T13:10:01;30.10;59.00
25582;DHT22;13462;50.764;4.332;2023-05-31T13:12:27;30.10;54.20
25582;DHT22;13462;50.764;4.332;2023-05-31T13:14:53;30.10;57.20
25582;DHT22;13462;50.764;4.332;2023-05-31T13:17:18;30.10;53.70
25582;DHT22;13462;50.764;4.332;2023-05-31T13:19:44;30.20;55.60
25582;DHT22;13462;50.764;4.332;2023-05-31T13:22:11;30.40;54.40
25582;DHT22;13462;50.764;4.332;2023-05-31T13:24:37;30.30;54.30
25582;DHT22;13462;50.764;4.332;2023-05-31T13:27:03;29.70;56.00
25582;DHT22;13462;50.764;4.332;2023-05-31T13:29:28;29.50;56.70
25582;DHT22;13462;50.764;4.332;2023-05-31T13:31:54;29.20;56.00
25582;DHT22;13462;50.764;4.332;2023-05-31T13:34:21;28.90;56.50
25582;DHT22;13462;50.764;4.332;2023-05-31T13:36:47;28.50;55.90
25582;DHT22;13462;50.764;4.332;2023-05-31T13:39:13;28.30;57.70
25582;DHT22;13462;50.764;4.332;2023-05-31T13:41:44;28.50;58.20
25582;DHT22;13462;50.764;4.332;2023-05-31T13:44:11;28.40;58.00
25582;DHT22;13462;50.764;4.332;2023-05-31T13:46:38;28.30;59.60
25582;DHT22;13462;50.764;4.332;2023-05-31T13:49:04;28.20;60.10
25582;DHT22;13462;50.764;4.332;2023-05-31T13:51:30;28.30;60.40
25582;DHT22;13462;50.764;4.332;2023-05-31T13:53:55;28.30;59.40
25582;DHT22;13462;50.764;4.332;2023-05-31T13:56:21;28.20;60.80
25582;DHT22;13462;50.764;4.332;2023-05-31T13:58:47;28.10;58.60
25582;DHT22;13462;50.764;4.332;2023-05-31T14:01:13;28.20;60.00
25582;DHT22;13462;50.764;4.332;2023-05-31T14:03:38;28.20;58.10
25582;DHT22;13462;50.764;4.332;2023-05-31T14:06:05;28.20;61.40
25582;DHT22;13462;50.764;4.332;2023-05-31T14:08:32;28.40;60.00
25582;DHT22;13462;50.764;4.332;2023-05-31T14:10:58;28.40;58.30
25582;DHT22;13462;50.764;4.332;2023-05-31T14:13:23;28.10;59.40
25582;DHT22;13462;50.764;4.332;2023-05-31T14:15:50;28.10;62.60
25582;DHT22;13462;50.764;4.332;2023-05-31T14:18:16;28.20;60.00
25582;DHT22;13462;50.764;4.332;2023-05-31T14:20:41;28.10;60.20
25582;DHT22;13462;50.764;4.332;2023-05-31T14:23:07;28.00;59.90
25582;DHT22;13462;50.764;4.332;2023-05-31T14:25:33;27.80;60.50
25582;DHT22;13462;50.764;4.332;2023-05-31T14:27:58;27.90;63.60
25582;DHT22;13462;50.764;4.332;2023-05-31T14:30:25;27.90;60.20
25582;DHT22;13462;50.764;4.332;2023-05-31T14:32:52;27.90;59.90
25582;DHT22;13462;50.764;4.332;2023-05-31T14:35:18;28.00;61.60
25582;DHT22;13462;50.764;4.332;2023-05-31T14:37:44;28.00;60.70
25582;DHT22;13462;50.764;4.332;2023-05-31T14:40:10;28.00;61.00
25582;DHT22;13462;50.764;4.332;2023-05-31T14:42:36;27.80;61.30
25582;DHT22;13462;50.764;4.332;2023-05-31T14:45:01;27.70;62.40
25582;DHT22;13462;50.764;4.332;2023-05-31T14:47:30;27.50;60.00
25582;DHT22;13462;50.764;4.332;2023-05-31T14:49:57;27.60;59.80
25582;DHT22;13462;50.764;4.332;2023-05-31T14:52:22;27.30;60.70
25582;DHT22;13462;50.764;4.332;2023-05-31T14:54:48;27.20;61.10
25582;DHT22;13462;50.764;4.332;2023-05-31T14:57:14;27.20;60.40
25582;DHT22;13462;50.764;4.332;2023-05-31T14:59:39;27.40;63.80
25582;DHT22;13462;50.764;4.332;2023-05-31T15:02:05;27.60;60.90
25582;DHT22;13462;50.764;4.332;2023-05-31T15:04:32;27.50;61.20
25582;DHT22;13462;50.764;4.332;2023-05-31T15:06:58;27.60;61.70
25582;DHT22;13462;50.764;4.332;2023-05-31T15:09:24;27.50;59.70
25582;DHT22;13462;50.764;4.332;2023-05-31T15:11:49;27.30;61.10
25582;DHT22;13462;50.764;4.332;2023-05-31T15:14:15;27.10;63.10
25582;DHT22;13462;50.764;4.332;2023-05-31T15:16:41;27.00;62.30
25582;DHT22;13462;50.764;4.332;2023-05-31T15:19:06;27.00;62.30
25582;DHT22;13462;50.764;4.332;2023-05-31T15:21:32;27.00;62.30
25582;DHT22;13462;50.764;4.332;2023-05-31T15:23:58;27.10;63.50
25582;DHT22;13462;50.764;4.332;2023-05-31T15:26:23;27.30;63.70
25582;DHT22;13462;50.764;4.332;2023-05-31T15:28:49;27.30;62.50
25582;DHT22;13462;50.764;4.332;2023-05-31T15:31:15;26.90;61.70
25582;DHT22;13462;50.764;4.332;2023-05-31T15:33:40;26.90;64.00
25582;DHT22;13462;50.764;4.332;2023-05-31T15:36:07;27.00;64.00
25582;DHT22;13462;50.764;4.332;2023-05-31T15:38:33;27.20;63.20
25582;DHT22;13462;50.764;4.332;2023-05-31T15:40:58;27.20;63.10
25582;DHT22;13462;50.764;4.332;2023-05-31T15:43:24;27.20;65.80